sensor_id;sensor_type;location;lat;lon;timestamp;temperature;humidity
24772;DHT22;12870;52.274;9.754;2023-10-31T00:00:39;13.90;99.90
24772;DHT22;12870;52.274;9.754;2023-10-31T00:03:05;14.00;99.90
24772;DHT22;12870;52.274;9.754;2023-10-31T00:05:30;14.00;99.90
24772;DHT22;12870;52.274;9.754;2023-10-31T00:07:56;14.00;99.90
24772;DHT22;12870;52.274;9.754;2023-10-31T00:10:21;14.00;99.90
24772;DHT22;12870;52.274;9.754;2023-10-31T00:12:47;14.00;99.90
24772;DHT22;12870;52.274;9.754;2023-10-31T00:15:13;14.00;99.90
24772;DHT22;12870;52.274;9.754;2023-10-31T00:17:39;14.00;99.90
24772;DHT22;12870;52.274;9.754;2023-10-31T00:20:05;14.00;99.90
24772;DHT22;12870;52.274;9.754;2023-10-31T00:22:31;14.00;99.90
24772;DHT22;12870;52.274;9.754;2023-10-31T00:24:56;14.00;99.90
24772;DHT22;12870;52.274;9.754;2023-10-31T00:27:22;13.90;99.90
24772;DHT22;12870;52.274;9.754;2023-10-31T00:29:47;13.90;99.90
24772;DHT22;12870;52.274;9.754;2023-10-31T00:32:13;13.90;99.90
24772;DHT22;12870;52.274;9.754;2023-10-31T00:34:39;13.90;99.90
24772;DHT22;12870;52.274;9.754;2023-10-31T00:37:04;13.80;99.90
24772;DHT22;12870;52.274;9.754;2023-10-31T00:39:30;13.80;99.90
24772;DHT22;12870;52.274;9.754;2023-10-31T00:41:55;13.80;99.90
24772;DHT22;12870;52.274;9.754;2023-10-31T00:44:21;13.80;99.90
24772;DHT22;12870;52.274;9.754;2023-10-31T00:46:46;13.80;99.90
24772;DHT22;12870;52.274;9.754;2023-10-31T00:49:12;13.80;99.90
24772;DHT22;12870;52.274;9.754;2023-10-31T00:51:37;13.80;99.90
24772;DHT22;12870;52.274;9.754;2023-10-31T00:54:03;13.70;99.90
24772;DHT22;12870;52.274;9.754;2023-10-31T00:56:28;13.80;99.90
24772;DHT22;12870;52.274;9.754;2023-10-31T00:58:54;13.80;99.90
24772;DHT22;12870;52.274;9.754;2023-10-31T01:01:19;13.80;99.90
24772;DHT22;12870;52.274;9.754;2023-10-31T01:03:45;13.80;99.90
24772;DHT22;12870;52.274;9.754;2023-10-31T01:06:10;13.80;99.90
24772;DHT22;12870;52.274;9.754;2023-10-31T01:08:36;13.80;99.90
24772;DHT22;12870;52.274;9.754;2023-10-31T01:11:02;13.90;99.90
24772;DHT22;12870;52.274;9.754;2023-10-31T01:13:27;13.80;99.90
24772;DHT22;12870;52.274;9.754;2023-10-31T01:15:53;13.90;99.90
24772;DHT22;12870;52.274;9.754;2023-10-31T01:18:18;13.90;99.90
24772;DHT22;12870;52.274;9.754;2023-10-31T01:20:44;13.90;99.90
24772;DHT22;12870;52.274;9.754;2023-10-31T01:23:10;13.90;99.90
24772;DHT22;12870;52.274;9.754;2023-10-31T01:25:35;13.90;99.90
24772;DHT22;12870;52.274;9.754;2023-10-31T01:28:01;13.80;99.90
24772;DHT22;12870;52.274;9.754;2023-10-31T01:30:26;13.80;99.90
24772;DHT22;12870;52.274;9.754;2023-10-31T01:32:52;13.70;99.90
24772;DHT22;12870;52.274;9.754;2023-10-31T01:35:17;13.70;99.90
24772;DHT22;12870;52.274;9.754;2023-10-31T01:37:43;13.70;99.90
24772;DHT22;12870;52.274;9.754;2023-10-31T01:40:11;13.70;99.90
24772;DHT22;12870;52.274;9.754;2023-10-31T01:42:37;13.60;99.90
24772;DHT22;12870;52.274;9.754;2023-10-31T01:45:03;13.70;99.90
24772;DHT22;12870;52.274;9.754;2023-10-31T01:47:29;13.70;99.90
24772;DHT22;12870;52.274;9.754;2023-10-31T01:49:55;13.70;99.90
24772;DHT22;12870;52.274;9.754;2023-10-31T01:52:21;13.70;99.90
24772;DHT22;12870;52.274;9.754;2023-10-31T01:54:46;13.70;99.90
24772;DHT22;12870;52.274;9.754;2023-10-31T01:57:13;13.70;99.90
24772;DHT22;12870;52.274;9.754;2023-10-31T01:59:39;13.70;99.90
24772;DHT22;12870;52.274;9.754;2023-10-31T02:02:05;13.70;99.90
24772;DHT22;12870;52.274;9.754;2023-10-31T02:04:30;13.70;99.90
24772;DHT22;12870;52.274;9.754;2023-10-31T02:06:56;13.70;99.90
24772;DHT22;12870;52.274;9.754;2023-10-31T02:09:21;13.70;99.90
24772;DHT22;12870;52.274;9.754;2023-10-31T02:11:50;13.80;99.90
24772;DHT22;12870;52.274;9.754;2023-10-31T02:14:16;13.80;99.90
24772;DHT22;12870;52.274;9.754;2023-10-31T02:16:41;13.90;99.90
24772;DHT22;12870;52.274;9.754;2023-10-31T02:19:07;13.90;99.90
24772;DHT22;12870;52.274;9.754;2023-10-31T02:21:33;13.90;99.90
24772;DHT22;12870;52.274;9.754;2023-10-31T02:24:00;14.00;99.90
24772;DHT22;12870;52.274;9.754;2023-10-31T02:26:30;14.00;99.90
24772;DHT22;12870;52.274;9.754;2023-10-31T02:28:55;14.00;99.90
24772;DHT22;12870;52.274;9.754;2023-10-31T02:31:21;14.00;99.90
24772;DHT22;12870;52.274;9.754;2023-10-31T02:33:46;13.90;99.90
24772;DHT22;12870;52.274;9.754;2023-10-31T02:36:12;14.00;99.90
24772;DHT22;12870;52.274;9.754;2023-10-31T02:38:38;14.00;99.90
24772;DHT22;12870;52.274;9.754;2023-10-31T02:41:03;14.00;99.90
24772;DHT22;12870;52.274;9.754;2023-10-31T02:43:29;14.00;99.90
24772;DHT22;12870;52.274;9.754;2023-10-31T02:45:54;14.00;99.90
24772;DHT22;12870;52.274;9.754;2023-10-31T02:48:20;13.90;99.90
24772;DHT22;12870;52.274;9.754;2023-10-31T02:50:45;13.90;99.90
24772;DHT22;12870;52.274;9.754;2023-10-31T02:53:11;13.90;99.90
24772;DHT22;12870;52.274;9.754;2023-10-31T02:55:37;13.90;99.90
24772;DHT22;12870;52.274;9.754;2023-10-31T02:58:02;14.00;99.90
24772;DHT22;12870;52.274;9.754;2023-10-31T03:00:28;13.90;99.90
24772;DHT22;12870;52.274;9.754;2023-10-31T03:02:54;13.90;99.90
24772;DHT22;12870;52.274;9.754;2023-10-31T03:05:19;14.00;99.90
24772;DHT22;12870;52.274;9.754;2023-10-31T03:07:45;14.00;99.90
24772;DHT22;12870;52.274;9.754;2023-10-31T03:10:10;14.10;99.90
24772;DHT22;12870;52.274;9.754;2023-10-31T03:12:36;14.10;99.90
24772;DHT22;12870;52.274;9.754;2023-10-31T03:15:02;14.10;99.90
24772;DHT22;12870;52.274;9.754;2023-10-31T03:17:29;14.10;99.90
24772;DHT22;12870;52.274;9.754;2023-10-31T03:19:55;14.10;99.90
24772;DHT22;12870;52.274;9.754;2023-10-31T03:22:20;14.10;99.90
24772;DHT22;12870;52.274;9.754;2023-10-31T03:24:46;13.90;99.90
24772;DHT22;12870;52.274;9.754;2023-10-31T03:27:12;13.60;99.90
24772;DHT22;12870;52.274;9.754;2023-10-31T03:29:37;13.40;99.90
24772;DHT22;12870;52.274;9.754;2023-10-31T03:32:03;13.30;99.90
24772;DHT22;12870;52.274;9.754;2023-10-31T03:34:30;13.20;99.90
24772;DHT22;12870;52.274;9.754;2023-10-31T03:36:56;13.20;99.90
24772;DHT22;12870;52.274;9.754;2023-10-31T03:39:21;13.10;99.90
24772;DHT22;12870;52.274;9.754;2023-10-31T03:41:47;13.00;99.90
24772;DHT22;12870;52.274;9.754;2023-10-31T03:44:12;13.00;99.90
24772;DHT22;12870;52.274;9.754;2023-10-31T03:46:38;12.90;99.90
24772;DHT22;12870;52.274;9.754;2023-10-31T03:49:03;12.90;99.90
24772;DHT22;12870;52.274;9.754;2023-10-31T03:51:29;12.80;99.90
24772;DHT22;12870;52.274;9.754;2023-10-31T03:53:55;12.80;99.90
24772;DHT22;12870;52.274;9.754;2023-10-31T03:56:21;12.70;99.90
24772;DHT22;12870;52.274;9.754;2023-10-31T03:58:46;12.70;99.90
24772;DHT22;12870;52.274;9.754;2023-10-31T04:01:12;12.70;99.90
24772;DHT22;12870;52.274;9.754;2023-10-31T04:03:37;12.70;99.90
24772;DHT22;12870;52.274;9.754;2023-10-31T04:06:03;12.70;99.90
24772;DHT22;12870;52.274;9.754;2023-10-31T04:08:29;12.70;99.90
24772;DHT22;12870;52.274;9.754;2023-10-31T04:10:54;12.70;99.90
24772;DHT22;12870;52.274;9.754;2023-10-31T04:13:20;12.70;99.90
24772;DHT22;12870;52.274;9.754;2023-10-31T04:15:45;12.70;99.90
24772;DHT22;12870;52.274;9.754;2023-10-31T04:18:11;12.60;99.90
24772;DHT22;12870;52.274;9.754;2023-10-31T04:20:36;12.70;99.90
24772;DHT22;12870;52.274;9.754;2023-10-31T04:23:02;12.70;99.90
24772;DHT22;12870;52.274;9.754;2023-10-31T04:25:27;12.70;99.90
24772;DHT22;12870;52.274;9.754;2023-10-31T04:27:54;12.70;99.90
24772;DHT22;12870;52.274;9.754;2023-10-31T04:30:20;12.50;99.90
24772;DHT22;12870;52.274;9.754;2023-10-31T04:32:47;12.50;99.90
24772;DHT22;12870;52.274;9.754;2023-10-31T04:35:12;12.50;99.90
24772;DHT22;12870;52.274;9.754;2023-10-31T04:37:38;12.50;99.90
24772;DHT22;12870;52.274;9.754;2023-10-31T04:40:04;12.40;99.90
24772;DHT22;12870;52.274;9.754;2023-10-31T04:42:32;12.30;99.90
24772;DHT22;12870;52.274;9.754;2023-10-31T04:44:58;12.30;99.90
24772;DHT22;12870;52.274;9.754;2023-10-31T04:47:24;12.20;99.90
24772;DHT22;12870;52.274;9.754;2023-10-31T04:49:50;12.20;99.90
24772;DHT22;12870;52.274;9.754;2023-10-31T04:52:17;12.20;99.90
24772;DHT22;12870;52.274;9.754;2023-10-31T04:54:42;12.20;99.90
24772;DHT22;12870;52.274;9.754;2023-10-31T04:57:08;12.20;99.90
24772;DHT22;12870;52.274;9.754;2023-10-31T04:59:33;12.00;99.90
24772;DHT22;12870;52.274;9.754;2023-10-31T05:01:59;11.90;99.90
24772;DHT22;12870;52.274;9.754;2023-10-31T05:04:24;11.90;99.90
24772;DHT22;12870;52.274;9.754;2023-10-31T05:06:50;11.90;99.90
24772;DHT22;12870;52.274;9.754;2023-10-31T05:09:15;11.90;99.90
24772;DHT22;12870;52.274;9.754;2023-10-31T05:11:41;11.80;99.90
24772;DHT22;12870;52.274;9.754;2023-10-31T05:14:09;11.80;99.90
24772;DHT22;12870;52.274;9.754;2023-10-31T05:16:44;11.70;99.90
24772;DHT22;12870;52.274;9.754;2023-10-31T05:19:10;11.60;99.90
24772;DHT22;12870;52.274;9.754;2023-10-31T05:21:36;11.60;99.90
24772;DHT22;12870;52.274;9.754;2023-10-31T05:24:02;11.60;99.90
24772;DHT22;12870;52.274;9.754;2023-10-31T05:26:27;11.60;99.90
24772;DHT22;12870;52.274;9.754;2023-10-31T05:28:55;11.60;99.90
24772;DHT22;12870;52.274;9.754;2023-10-31T05:31:20;11.60;99.90
24772;DHT22;12870;52.274;9.754;2023-10-31T05:33:46;11.60;99.90
24772;DHT22;12870;52.274;9.754;2023-10-31T05:36:22;11.50;99.90
24772;DHT22;12870;52.274;9.754;2023-10-31T05:38:48;11.60;99.90
24772;DHT22;12870;52.274;9.754;2023-10-31T05:41:14;11.60;99.90
24772;DHT22;12870;52.274;9.754;2023-10-31T05:43:40;11.60;99.90
24772;DHT22;12870;52.274;9.754;2023-10-31T05:46:07;11.60;99.90
24772;DHT22;12870;52.274;9.754;2023-10-31T05:48:43;11.70;99.90
24772;DHT22;12870;52.274;9.754;2023-10-31T05:51:17;11.70;99.90
24772;DHT22;12870;52.274;9.754;2023-10-31T05:53:47;11.70;99.90
24772;DHT22;12870;52.274;9.754;2023-10-31T05:56:14;11.70;99.90
24772;DHT22;12870;52.274;9.754;2023-10-31T05:58:40;11.70;99.90
24772;DHT22;12870;52.274;9.754;2023-10-31T06:01:06;11.70;99.90
24772;DHT22;12870;52.274;9.754;2023-10-31T06:03:33;11.60;99.90
24772;DHT22;12870;52.274;9.754;2023-10-31T06:05:59;11.60;99.90
24772;DHT22;12870;52.274;9.754;2023-10-31T06:08:25;11.60;99.90
24772;DHT22;12870;52.274;9.754;2023-10-31T06:10:53;11.50;99.90
24772;DHT22;12870;52.274;9.754;2023-10-31T06:13:19;11.50;99.90
24772;DHT22;12870;52.274;9.754;2023-10-31T06:15:44;11.50;99.90
24772;DHT22;12870;52.274;9.754;2023-10-31T06:18:10;11.50;99.90
24772;DHT22;12870;52.274;9.754;2023-10-31T06:20:35;11.50;99.90
24772;DHT22;12870;52.274;9.754;2023-10-31T06:23:02;11.60;99.90
24772;DHT22;12870;52.274;9.754;2023-10-31T06:25:29;11.50;99.90
24772;DHT22;12870;52.274;9.754;2023-10-31T06:27:55;11.40;99.90
24772;DHT22;12870;52.274;9.754;2023-10-31T06:30:20;11.40;99.90
24772;DHT22;12870;52.274;9.754;2023-10-31T06:32:46;11.50;99.90
24772;DHT22;12870;52.274;9.754;2023-10-31T06:35:11;11.50;99.90
24772;DHT22;12870;52.274;9.754;2023-10-31T06:37:37;11.60;99.90
24772;DHT22;12870;52.274;9.754;2023-10-31T06:40:04;11.60;99.90
24772;DHT22;12870;52.274;9.754;2023-10-31T06:42:30;11.60;99.90
24772;DHT22;12870;52.274;9.754;2023-10-31T06:44:55;11.50;99.90
24772;DHT22;12870;52.274;9.754;2023-10-31T06:47:21;11.60;99.90
24772;DHT22;12870;52.274;9.754;2023-10-31T06:49:46;11.60;99.90
24772;DHT22;12870;52.274;9.754;2023-10-31T06:52:12;11.60;99.90
24772;DHT22;12870;52.274;9.754;2023-10-31T06:54:38;11.70;99.90
24772;DHT22;12870;52.274;9.754;2023-10-31T06:57:03;11.60;99.90
24772;DHT22;12870;52.274;9.754;2023-10-31T06:59:29;11.60;99.90
24772;DHT22;12870;52.274;9.754;2023-10-31T07:01:55;11.60;99.90
24772;DHT22;12870;52.274;9.754;2023-10-31T07:04:20;11.60;99.90
24772;DHT22;12870;52.274;9.754;2023-10-31T07:06:46;11.70;99.90
24772;DHT22;12870;52.274;9.754;2023-10-31T07:09:11;11.60;99.90
24772;DHT22;12870;52.274;9.754;2023-10-31T07:11:37;11.60;99.90
24772;DHT22;12870;52.274;9.754;2023-10-31T07:14:02;11.60;99.90
24772;DHT22;12870;52.274;9.754;2023-10-31T07:16:28;11.60;99.90
24772;DHT22;12870;52.274;9.754;2023-10-31T07:18:54;11.60;99.90
24772;DHT22;12870;52.274;9.754;2023-10-31T07:21:20;11.50;99.90
24772;DHT22;12870;52.274;9.754;2023-10-31T07:23:45;11.60;99.90
24772;DHT22;12870;52.274;9.754;2023-10-31T07:26:11;11.60;99.90
24772;DHT22;12870;52.274;9.754;2023-10-31T07:28:37;11.60;99.90
24772;DHT22;12870;52.274;9.754;2023-10-31T07:31:02;11.60;99.90
24772;DHT22;12870;52.274;9.754;2023-10-31T07:33:29;11.60;99.90
24772;DHT22;12870;52.274;9.754;2023-10-31T07:35:54;11.50;99.90
24772;DHT22;12870;52.274;9.754;2023-10-31T07:38:20;11.50;99.90
24772;DHT22;12870;52.274;9.754;2023-10-31T07:40:45;11.60;99.90
24772;DHT22;12870;52.274;9.754;2023-10-31T07:43:11;11.60;99.90
24772;DHT22;12870;52.274;9.754;2023-10-31T07:45:36;11.60;99.90
24772;DHT22;12870;52.274;9.754;2023-10-31T07:48:02;11.60;99.90
24772;DHT22;12870;52.274;9.754;2023-10-31T07:50:27;11.50;99.90
24772;DHT22;12870;52.274;9.754;2023-10-31T07:52:53;11.40;99.90
24772;DHT22;12870;52.274;9.754;2023-10-31T07:55:18;11.20;99.90
24772;DHT22;12870;52.274;9.754;2023-10-31T07:57:44;11.10;99.90
24772;DHT22;12870;52.274;9.754;2023-10-31T08:00:11;11.10;99.90
24772;DHT22;12870;52.274;9.754;2023-10-31T08:02:37;11.00;99.90
24772;DHT22;12870;52.274;9.754;2023-10-31T08:05:02;11.10;99.90
24772;DHT22;12870;52.274;9.754;2023-10-31T08:07:28;11.00;99.90
24772;DHT22;12870;52.274;9.754;2023-10-31T08:09:56;11.00;99.90
24772;DHT22;12870;52.274;9.754;2023-10-31T08:12:21;11.00;99.90
24772;DHT22;12870;52.274;9.754;2023-10-31T08:14:47;11.00;99.90
24772;DHT22;12870;52.274;9.754;2023-10-31T08:17:13;10.90;99.90
24772;DHT22;12870;52.274;9.754;2023-10-31T08:19:38;10.90;99.90
24772;DHT22;12870;52.274;9.754;2023-10-31T08:22:04;10.90;99.90
24772;DHT22;12870;52.274;9.754;2023-10-31T08:24:29;10.90;99.90
24772;DHT22;12870;52.274;9.754;2023-10-31T08:26:55;10.90;99.90
24772;DHT22;12870;52.274;9.754;2023-10-31T08:29:21;11.00;99.90
24772;DHT22;12870;52.274;9.754;2023-10-31T08:31:46;11.10;99.90
24772;DHT22;12870;52.274;9.754;2023-10-31T08:34:12;11.10;99.90
24772;DHT22;12870;52.274;9.754;2023-10-31T08:36:38;11.30;99.90
24772;DHT22;12870;52.274;9.754;2023-10-31T08:39:03;11.30;99.90
24772;DHT22;12870;52.274;9.754;2023-10-31T08:41:29;11.30;99.90
24772;DHT22;12870;52.274;9.754;2023-10-31T08:43:54;11.40;99.90
24772;DHT22;12870;52.274;9.754;2023-10-31T08:46:20;11.30;99.90
24772;DHT22;12870;52.274;9.754;2023-10-31T08:48:47;11.40;99.90
24772;DHT22;12870;52.274;9.754;2023-10-31T08:51:12;11.50;99.90
24772;DHT22;12870;52.274;9.754;2023-10-31T08:53:38;11.50;99.90
24772;DHT22;12870;52.274;9.754;2023-10-31T08:56:04;11.60;99.90
24772;DHT22;12870;52.274;9.754;2023-10-31T08:58:29;11.60;99.90
24772;DHT22;12870;52.274;9.754;2023-10-31T09:00:55;11.70;99.90
24772;DHT22;12870;52.274;9.754;2023-10-31T09:03:20;11.70;99.90
24772;DHT22;12870;52.274;9.754;2023-10-31T09:05:46;11.60;99.90
24772;DHT22;12870;52.274;9.754;2023-10-31T09:08:11;11.60;99.90
24772;DHT22;12870;52.274;9.754;2023-10-31T09:10:37;11.60;99.90
24772;DHT22;12870;52.274;9.754;2023-10-31T09:13:03;11.60;99.90
24772;DHT22;12870;52.274;9.754;2023-10-31T09:15:29;11.70;99.90
24772;DHT22;12870;52.274;9.754;2023-10-31T09:17:55;11.80;99.90
24772;DHT22;12870;52.274;9.754;2023-10-31T09:20:20;11.90;99.90
24772;DHT22;12870;52.274;9.754;2023-10-31T09:22:46;12.00;99.90
24772;DHT22;12870;52.274;9.754;2023-10-31T09:25:11;11.90;99.90
24772;DHT22;12870;52.274;9.754;2023-10-31T09:27:40;12.10;99.90
24772;DHT22;12870;52.274;9.754;2023-10-31T09:30:06;12.30;99.90
24772;DHT22;12870;52.274;9.754;2023-10-31T09:32:31;12.40;99.90
24772;DHT22;12870;52.274;9.754;2023-10-31T09:34:57;12.30;99.90
24772;DHT22;12870;52.274;9.754;2023-10-31T09:37:23;12.30;99.90
24772;DHT22;12870;52.274;9.754;2023-10-31T09:39:48;12.30;99.90
24772;DHT22;12870;52.274;9.754;2023-10-31T09:42:14;12.20;99.90
24772;DHT22;12870;52.274;9.754;2023-10-31T09:44:40;12.30;99.90
24772;DHT22;12870;52.274;9.754;2023-10-31T09:47:06;12.40;99.90
24772;DHT22;12870;52.274;9.754;2023-10-31T09:49:32;12.40;99.90
24772;DHT22;12870;52.274;9.754;2023-10-31T09:51:58;12.40;99.90
24772;DHT22;12870;52.274;9.754;2023-10-31T09:54:25;12.40;99.90
24772;DHT22;12870;52.274;9.754;2023-10-31T09:56:51;12.40;99.90
24772;DHT22;12870;52.274;9.754;2023-10-31T09:59:17;12.50;99.90
24772;DHT22;12870;52.274;9.754;2023-10-31T10:01:42;12.60;99.90
24772;DHT22;12870;52.274;9.754;2023-10-31T10:04:08;12.50;99.90
24772;DHT22;12870;52.274;9.754;2023-10-31T10:06:34;12.40;99.90
24772;DHT22;12870;52.274;9.754;2023-10-31T10:09:00;12.40;99.90
24772;DHT22;12870;52.274;9.754;2023-10-31T10:11:29;12.50;99.90
24772;DHT22;12870;52.274;9.754;2023-10-31T10:13:56;12.50;99.90
24772;DHT22;12870;52.274;9.754;2023-10-31T10:16:33;12.50;99.90
24772;DHT22;12870;52.274;9.754;2023-10-31T10:19:18;12.50;99.90
24772;DHT22;12870;52.274;9.754;2023-10-31T10:21:49;12.50;99.90
24772;DHT22;12870;52.274;9.754;2023-10-31T10:24:16;12.60;99.90
24772;DHT22;12870;52.274;9.754;2023-10-31T10:26:42;12.70;99.90
24772;DHT22;12870;52.274;9.754;2023-10-31T10:29:07;12.50;99.90
24772;DHT22;12870;52.274;9.754;2023-10-31T10:31:33;12.50;99.90
24772;DHT22;12870;52.274;9.754;2023-10-31T10:33:58;12.60;99.90
24772;DHT22;12870;52.274;9.754;2023-10-31T10:36:26;12.70;99.90
24772;DHT22;12870;52.274;9.754;2023-10-31T10:38:56;12.60;99.90
24772;DHT22;12870;52.274;9.754;2023-10-31T10:41:26;12.70;99.90
24772;DHT22;12870;52.274;9.754;2023-10-31T10:43:57;12.70;99.90
24772;DHT22;12870;52.274;9.754;2023-10-31T10:46:28;12.70;99.90
24772;DHT22;12870;52.274;9.754;2023-10-31T10:48:58;12.80;99.90
24772;DHT22;12870;52.274;9.754;2023-10-31T10:51:29;12.90;99.90
24772;DHT22;12870;52.274;9.754;2023-10-31T10:54:14;12.80;99.90
24772;DHT22;12870;52.274;9.754;2023-10-31T10:56:53;12.80;99.90
24772;DHT22;12870;52.274;9.754;2023-10-31T10:59:23;12.80;99.90
24772;DHT22;12870;52.274;9.754;2023-10-31T11:01:52;12.80;99.90
24772;DHT22;12870;52.274;9.754;2023-10-31T11:04:18;12.90;99.90
24772;DHT22;12870;52.274;9.754;2023-10-31T11:06:44;12.80;99.90
24772;DHT22;12870;52.274;9.754;2023-10-31T11:09:10;12.70;99.90
24772;DHT22;12870;52.274;9.754;2023-10-31T11:11:37;12.60;99.90
24772;DHT22;12870;52.274;9.754;2023-10-31T11:14:03;12.80;99.90
24772;DHT22;12870;52.274;9.754;2023-10-31T11:16:38;12.80;99.90
24772;DHT22;12870;52.274;9.754;2023-10-31T11:19:06;12.80;99.90
24772;DHT22;12870;52.274;9.754;2023-10-31T11:21:34;12.90;99.90
24772;DHT22;12870;52.274;9.754;2023-10-31T11:24:00;12.90;99.90
24772;DHT22;12870;52.274;9.754;2023-10-31T11:26:32;13.00;99.90
24772;DHT22;12870;52.274;9.754;2023-10-31T11:29:04;13.10;99.90
24772;DHT22;12870;52.274;9.754;2023-10-31T11:31:31;13.00;99.90
24772;DHT22;12870;52.274;9.754;2023-10-31T11:33:58;13.00;99.90
24772;DHT22;12870;52.274;9.754;2023-10-31T11:36:23;13.10;99.90
24772;DHT22;12870;52.274;9.754;2023-10-31T11:38:49;13.00;99.90
24772;DHT22;12870;52.274;9.754;2023-10-31T11:41:14;13.00;99.90
24772;DHT22;12870;52.274;9.754;2023-10-31T11:46:05;12.80;99.90
24772;DHT22;12870;52.274;9.754;2023-10-31T11:48:50;12.70;99.90
24772;DHT22;12870;52.274;9.754;2023-10-31T11:51:17;12.70;99.90
24772;DHT22;12870;52.274;9.754;2023-10-31T11:53:43;12.60;99.90
24772;DHT22;12870;52.274;9.754;2023-10-31T11:56:10;12.60;99.90
24772;DHT22;12870;52.274;9.754;2023-10-31T11:58:37;12.60;99.90
24772;DHT22;12870;52.274;9.754;2023-10-31T12:01:04;12.50;99.90
24772;DHT22;12870;52.274;9.754;2023-10-31T12:03:40;12.70;99.90
24772;DHT22;12870;52.274;9.754;2023-10-31T12:06:07;12.70;99.90
24772;DHT22;12870;52.274;9.754;2023-10-31T12:08:38;12.60;99.90
24772;DHT22;12870;52.274;9.754;2023-10-31T12:11:21;12.60;99.90
24772;DHT22;12870;52.274;9.754;2023-10-31T12:13:58;12.70;99.90
24772;DHT22;12870;52.274;9.754;2023-10-31T12:16:27;12.70;99.90
24772;DHT22;12870;52.274;9.754;2023-10-31T12:18:54;12.80;99.90
24772;DHT22;12870;52.274;9.754;2023-10-31T12:21:33;12.80;99.90
24772;DHT22;12870;52.274;9.754;2023-10-31T12:24:05;12.90;99.90
24772;DHT22;12870;52.274;9.754;2023-10-31T12:26:35;12.80;99.90
24772;DHT22;12870;52.274;9.754;2023-10-31T12:29:08;12.90;99.90
24772;DHT22;12870;52.274;9.754;2023-10-31T12:31:34;12.90;99.90
24772;DHT22;12870;52.274;9.754;2023-10-31T12:34:06;12.90;99.90
24772;DHT22;12870;52.274;9.754;2023-10-31T12:36:32;12.90;99.90
24772;DHT22;12870;52.274;9.754;2023-10-31T12:38:59;12.90;99.90
24772;DHT22;12870;52.274;9.754;2023-10-31T12:41:24;12.80;99.90
24772;DHT22;12870;52.274;9.754;2023-10-31T12:43:50;12.90;99.90
24772;DHT22;12870;52.274;9.754;2023-10-31T12:46:29;12.80;99.90
24772;DHT22;12870;52.274;9.754;2023-10-31T12:48:56;13.00;99.90
24772;DHT22;12870;52.274;9.754;2023-10-31T12:51:22;13.00;99.90
24772;DHT22;12870;52.274;9.754;2023-10-31T12:53:51;13.10;99.90
24772;DHT22;12870;52.274;9.754;2023-10-31T12:59:03;13.30;99.90
24772;DHT22;12870;52.274;9.754;2023-10-31T13:01:29;13.30;99.90
24772;DHT22;12870;52.274;9.754;2023-10-31T13:03:55;13.30;99.90
24772;DHT22;12870;52.274;9.754;2023-10-31T13:06:20;13.30;99.90
24772;DHT22;12870;52.274;9.754;2023-10-31T13:08:46;13.30;99.90
24772;DHT22;12870;52.274;9.754;2023-10-31T13:11:13;13.40;99.90
24772;DHT22;12870;52.274;9.754;2023-10-31T13:13:39;13.40;99.90
24772;DHT22;12870;52.274;9.754;2023-10-31T13:16:05;13.50;99.90
24772;DHT22;12870;52.274;9.754;2023-10-31T13:18:31;13.50;99.90
24772;DHT22;12870;52.274;9.754;2023-10-31T13:20:57;13.50;99.90
24772;DHT22;12870;52.274;9.754;2023-10-31T13:23:22;13.50;99.90
24772;DHT22;12870;52.274;9.754;2023-10-31T13:25:48;13.70;99.90
24772;DHT22;12870;52.274;9.754;2023-10-31T13:28:13;13.90;99.90
24772;DHT22;12870;52.274;9.754;2023-10-31T13:30:39;14.00;99.90
24772;DHT22;12870;52.274;9.754;2023-10-31T13:33:06;13.80;99.90
24772;DHT22;12870;52.274;9.754;2023-10-31T13:35:32;14.00;99.90
24772;DHT22;12870;52.274;9.754;2023-10-31T13:37:59;14.60;99.90
24772;DHT22;12870;52.274;9.754;2023-10-31T13:40:24;15.20;99.90
24772;DHT22;12870;52.274;9.754;2023-10-31T13:42:50;15.50;99.90
24772;DHT22;12870;52.274;9.754;2023-10-31T13:45:15;15.60;99.90
24772;DHT22;12870;52.274;9.754;2023-10-31T13:47:41;14.80;99.90
24772;DHT22;12870;52.274;9.754;2023-10-31T13:50:07;14.70;99.90
24772;DHT22;12870;52.274;9.754;2023-10-31T13:52:33;14.80;99.90
24772;DHT22;12870;52.274;9.754;2023-10-31T13:54:59;14.60;99.90
24772;DHT22;12870;52.274;9.754;2023-10-31T13:57:25;14.40;99.90
24772;DHT22;12870;52.274;9.754;2023-10-31T13:59:50;14.00;99.90
24772;DHT22;12870;52.274;9.754;2023-10-31T14:02:16;14.10;99.90
24772;DHT22;12870;52.274;9.754;2023-10-31T14:04:42;13.80;99.90
24772;DHT22;12870;52.274;9.754;2023-10-31T14:07:08;13.70;99.90
24772;DHT22;12870;52.274;9.754;2023-10-31T14:09:33;13.50;99.90
24772;DHT22;12870;52.274;9.754;2023-10-31T14:11:59;13.40;99.90
24772;DHT22;12870;52.274;9.754;2023-10-31T14:14:25;13.40;99.90
24772;DHT22;12870;52.274;9.754;2023-10-31T14:16:50;13.40;99.90
24772;DHT22;12870;52.274;9.754;2023-10-31T14:19:16;13.40;99.90
24772;DHT22;12870;52.274;9.754;2023-10-31T14:21:41;13.30;99.90
24772;DHT22;12870;52.274;9.754;2023-10-31T14:24:07;13.30;99.90
24772;DHT22;12870;52.274;9.754;2023-10-31T14:26:34;13.40;99.90
24772;DHT22;12870;52.274;9.754;2023-10-31T14:29:00;13.50;99.90
24772;DHT22;12870;52.274;9.754;2023-10-31T14:31:26;13.60;99.90
24772;DHT22;12870;52.274;9.754;2023-10-31T14:33:51;13.60;99.90
24772;DHT22;12870;52.274;9.754;2023-10-31T14:36:17;13.60;99.90
24772;DHT22;12870;52.274;9.754;2023-10-31T14:38:42;13.60;99.90
24772;DHT22;12870;52.274;9.754;2023-10-31T14:41:08;13.60;99.90
24772;DHT22;12870;52.274;9.754;2023-10-31T14:43:34;13.60;99.90
24772;DHT22;12870;52.274;9.754;2023-10-31T14:46:00;13.50;99.90
24772;DHT22;12870;52.274;9.754;2023-10-31T14:48:27;13.60;99.90
24772;DHT22;12870;52.274;9.754;2023-10-31T14:50:52;13.50;99.90
24772;DHT22;12870;52.274;9.754;2023-10-31T14:53:18;13.50;99.90
24772;DHT22;12870;52.274;9.754;2023-10-31T14:55:47;13.40;99.90
24772;DHT22;12870;52.274;9.754;2023-10-31T14:58:13;13.40;99.90
24772;DHT22;12870;52.274;9.754;2023-10-31T15:00:39;13.30;99.90
24772;DHT22;12870;52.274;9.754;2023-10-31T15:03:05;13.30;99.90
24772;DHT22;12870;52.274;9.754;2023-10-31T15:05:30;13.30;99.90
24772;DHT22;12870;52.274;9.754;2023-10-31T15:07:56;13.20;99.90
24772;DHT22;12870;52.274;9.754;2023-10-31T15:10:25;13.10;99.90
24772;DHT22;12870;52.274;9.754;2023-10-31T15:12:54;13.20;99.90
24772;DHT22;12870;52.274;9.754;2023-10-31T15:15:20;13.30;99.90
24772;DHT22;12870;52.274;9.754;2023-10-31T15:17:46;13.10;99.90
24772;DHT22;12870;52.274;9.754;2023-10-31T15:20:17;12.70;99.90
24772;DHT22;12870;52.274;9.754;2023-10-31T15:22:43;12.40;99.90
24772;DHT22;12870;52.274;9.754;2023-10-31T15:25:09;12.00;99.90
24772;DHT22;12870;52.274;9.754;2023-10-31T15:27:35;11.90;99.90
24772;DHT22;12870;52.274;9.754;2023-10-31T15:30:01;11.90;99.90